Bf Esperanza — V2BR8 — position and weather

sailwx.info

Track history (hours):
 
Tides and Currents Weather Stations Pressure Air Temp Water Temp Dewpoint Dewpoint Depression Visibility Wind Speed Wind Dir Waves Ship Positions

Bf Esperanza

Last reported at 2016-Jul-22 14:33 UTC. Time now 2016-Jul-24 18:33 UTC.
Position N 37°09' E 004°11'.

Length 135 m; draft 6.9 m.

Type: Ship (hazmat cat A). MMSI: 304907000.

Date/timePositionNaut miles runAvg speedWind from/ knotsBaromVisibWave heightAir tempDewpointWater temp
2016-Jul-22 14:33N 37°09' E 004°11'1211.6
2016-Jul-22 13:33N 37°07' E 003°56'1211.7
2016-Jul-22 12:33N 37°05' E 003°42'1211.9
2016-Jul-22 11:33N 37°02' E 003°27'2311.5
2016-Jul-22 09:33N 36°47' E 003°06'2 0.4
2016-Jul-22 04:33N 36°46' E 003°04'0 0.1
2016-Jul-22 03:33N 36°46' E 003°04'0 0.0
2016-Jul-21 22:29N 36°46' E 003°04'0 0.0
2016-Jul-21 17:14N 36°46' E 003°04'0 0.0
2016-Jul-21 16:25N 36°46' E 003°04'0 0.0
2016-Jul-21 15:25N 36°46' E 003°04'0 0.0
2016-Jul-21 14:31N 36°46' E 003°04'0 0.0
2016-Jul-21 13:33N 36°46' E 003°04'0 0.0
2016-Jul-21 11:05N 36°46' E 003°04'0 0.0
2016-Jul-21 10:29N 36°46' E 003°04'0 0.0
2016-Jul-21 09:32N 36°46' E 003°04'0 0.0
2016-Jul-21 08:31N 36°46' E 003°04'0 0.1
2016-Jul-21 07:24N 36°46' E 003°04'4 5.3
2016-Jul-21 06:34N 36°50' E 003°05'1212.1
2016-Jul-21 05:33N 36°52' E 002°50'1413.5
2016-Jul-21 04:33N 36°49' E 002°33'1413.1
2016-Jul-21 03:28N 36°46' E 002°16'1413.4
2016-Jul-21 02:24N 36°44' E 001°58'1113.0
2016-Jul-21 01:33N 36°41' E 001°45'1313.5
2016-Jul-21 00:33N 36°39' E 001°28'1313.1
2016-Jul-20 23:33N 36°37' E 001°12'1212.5
2016-Jul-20 22:33N 36°34' E 000°57'1312.6
2016-Jul-20 21:33N 36°30' E 000°42'1312.7
2016-Jul-20 20:33N 36°26' E 000°27'1313.1
2016-Jul-20 19:33N 36°21' E 000°12'1813.1
2016-Jul-20 18:12N 36°16' W 000°09'912.9
2016-Jul-20 17:28N 36°13' W 000°20'8711.9
2016-Jul-20 10:09N 35°18' W 001°44'83 2.6
2016-Jul-19 02:23N 36°33' W 001°00'1012.2
2016-Jul-19 01:34N 36°42' W 000°53'1212.3
2016-Jul-19 00:34N 36°53' W 000°46'1312.7
2016-Jul-18 23:33N 37°04' W 000°39'1313.2
2016-Jul-18 22:33N 37°16' W 000°32'1313.2
2016-Jul-18 21:34N 37°28' W 000°24'1313.4
2016-Jul-18 20:33N 37°40' W 000°17'1313.2
2016-Jul-18 19:33N 37°52' W 000°10'1312.9
2016-Jul-18 18:31N 38°04' W 000°02'1212.6
2016-Jul-18 17:33N 38°15' E 000°04'1312.9
2016-Jul-18 16:31N 38°27' E 000°12'1712.5
2016-Jul-18 15:11N 38°41' E 000°22'72 2.5
2016-Jul-17 10:33N 39°48' E 000°57'1313.4
2016-Jul-17 09:33N 39°60' E 001°05'1413.3
2016-Jul-17 08:32N 40°12' E 001°13'1513.2
2016-Jul-17 07:24N 40°25' E 001°21'1313.2
2016-Jul-17 06:23N 40°37' E 001°29'2614.0
2016-Jul-17 04:33N 40°55' E 001°53'1414.4
2016-Jul-17 03:33N 41°04' E 002°08'1514.5
2016-Jul-17 02:33N 41°13' E 002°23'2014.2
2016-Jul-17 01:09N 41°26' E 002°44'4213.9
2016-Jul-16 22:08N 41°53' E 003°26'1214.6
2016-Jul-16 21:18N 42°05' E 003°26'1013.9
2016-Jul-16 20:33N 42°15' E 003°26'1413.5
2016-Jul-16 19:31N 42°29' E 003°26'7611.0
2016-Jul-16 12:33N 43°09' E 004°55'1211.8
2016-Jul-16 11:33N 43°14' E 005°09'9 0.2
2016-Jul-14 17:33N 43°21' E 005°17'1111.1
2016-Jul-14 16:34N 43°11' E 005°12'12910.4
2016-Jul-14 04:10N 43°37' E 008°06'914.4
2016-Jul-14 03:33N 43°42' E 008°16'1515.0
2016-Jul-14 02:33N 43°51' E 008°33'1514.7
2016-Jul-14 01:33N 43°59' E 008°49'1413.9
2016-Jul-14 00:33N 44°13' E 008°55'1111.4
2016-Jul-13 23:33N 44°24' E 008°54'0 0.2
2016-Jul-13 22:32N 44°24' E 008°54'0 0.0
2016-Jul-13 21:32N 44°24' E 008°54'0 0.0
2016-Jul-13 20:28N 44°24' E 008°54'0 0.0
2016-Jul-13 19:28N 44°24' E 008°54'0 0.0
2016-Jul-13 18:30N 44°24' E 008°54'0 0.0
2016-Jul-13 17:33N 44°24' E 008°54'0 0.0
2016-Jul-13 16:32N 44°24' E 008°54'0 0.0
2016-Jul-13 15:32N 44°24' E 008°54'0 0.0
2016-Jul-13 14:32N 44°24' E 008°54'0 0.0
2016-Jul-13 13:31N 44°24' E 008°54'0 0.0
2016-Jul-13 12:31N 44°24' E 008°54'0 0.1
2016-Jul-13 11:34N 44°24' E 008°54'1110.8
2016-Jul-13 10:33N 44°16' E 009°04'1616.0
2016-Jul-13 09:33N 44°04' E 009°19'1010.5
2016-Jul-13 08:33N 44°03' E 009°33'1110.7
2016-Jul-13 07:33N 43°59' E 009°47'7 7.2
2016-Jul-13 06:33N 44°06' E 009°51'0 0.2
2016-Jul-13 05:33N 44°06' E 009°51'0 0.0
2016-Jul-13 04:33N 44°06' E 009°51'0 0.0
2016-Jul-13 03:33N 44°06' E 009°51'0 0.0
2016-Jul-13 02:32N 44°06' E 009°51'0 0.0
2016-Jul-13 01:32N 44°06' E 009°51'0 0.0
2016-Jul-13 00:31N 44°06' E 009°51'0 0.0
2016-Jul-12 23:31N 44°06' E 009°51'0 0.0
2016-Jul-12 22:33N 44°06' E 009°51'0 0.0
2016-Jul-12 21:33N 44°06' E 009°51'0 0.0
2016-Jul-12 20:33N 44°06' E 009°51'0 0.0
2016-Jul-12 19:32N 44°06' E 009°51'0 0.0
2016-Jul-12 18:32N 44°06' E 009°51'0 0.0
2016-Jul-12 17:28N 44°06' E 009°51'0 0.0
2016-Jul-12 16:31N 44°06' E 009°51'0 0.0
2016-Jul-12 15:33N 44°06' E 009°51'3 3.1
2016-Jul-12 14:33N 44°04' E 009°52'  
Track history (hours):
 
Tides and Currents Weather Stations Pressure Air Temp Water Temp Dewpoint Dewpoint Depression Visibility Wind Speed Wind Dir Waves Ship Positions

Bf Esperanza

Last reported at 2016-Jul-22 14:33 UTC. Time now 2016-Jul-24 18:33 UTC.
Position N 37°09' E 004°11'.

Length 135 m; draft 6.9 m.

Type: Ship (hazmat cat A). MMSI: 304907000.

Date/timePositionNaut miles runAvg speedWind from/ knotsBaromVisibWave heightAir tempDewpointWater temp
2016-Jul-22 14:33N 37°09' E 004°11'1211.6
2016-Jul-22 13:33N 37°07' E 003°56'1211.7
2016-Jul-22 12:33N 37°05' E 003°42'1211.9
2016-Jul-22 11:33N 37°02' E 003°27'2311.5
2016-Jul-22 09:33N 36°47' E 003°06'2 0.4
2016-Jul-22 04:33N 36°46' E 003°04'0 0.1
2016-Jul-22 03:33N 36°46' E 003°04'0 0.0
2016-Jul-21 22:29N 36°46' E 003°04'0 0.0
2016-Jul-21 17:14N 36°46' E 003°04'0 0.0
2016-Jul-21 16:25N 36°46' E 003°04'0 0.0
2016-Jul-21 15:25N 36°46' E 003°04'0 0.0
2016-Jul-21 14:31N 36°46' E 003°04'0 0.0
2016-Jul-21 13:33N 36°46' E 003°04'0 0.0
2016-Jul-21 11:05N 36°46' E 003°04'0 0.0
2016-Jul-21 10:29N 36°46' E 003°04'0 0.0
2016-Jul-21 09:32N 36°46' E 003°04'0 0.0
2016-Jul-21 08:31N 36°46' E 003°04'0 0.1
2016-Jul-21 07:24N 36°46' E 003°04'4 5.3
2016-Jul-21 06:34N 36°50' E 003°05'1212.1
2016-Jul-21 05:33N 36°52' E 002°50'1413.5
2016-Jul-21 04:33N 36°49' E 002°33'1413.1
2016-Jul-21 03:28N 36°46' E 002°16'1413.4
2016-Jul-21 02:24N 36°44' E 001°58'1113.0
2016-Jul-21 01:33N 36°41' E 001°45'1313.5
2016-Jul-21 00:33N 36°39' E 001°28'1313.1
2016-Jul-20 23:33N 36°37' E 001°12'1212.5
2016-Jul-20 22:33N 36°34' E 000°57'1312.6
2016-Jul-20 21:33N 36°30' E 000°42'1312.7
2016-Jul-20 20:33N 36°26' E 000°27'1313.1
2016-Jul-20 19:33N 36°21' E 000°12'1813.1
2016-Jul-20 18:12N 36°16' W 000°09'912.9
2016-Jul-20 17:28N 36°13' W 000°20'8711.9
2016-Jul-20 10:09N 35°18' W 001°44'83 2.6
2016-Jul-19 02:23N 36°33' W 001°00'1012.2
2016-Jul-19 01:34N 36°42' W 000°53'1212.3
2016-Jul-19 00:34N 36°53' W 000°46'1312.7
2016-Jul-18 23:33N 37°04' W 000°39'1313.2
2016-Jul-18 22:33N 37°16' W 000°32'1313.2
2016-Jul-18 21:34N 37°28' W 000°24'1313.4
2016-Jul-18 20:33N 37°40' W 000°17'1313.2
2016-Jul-18 19:33N 37°52' W 000°10'1312.9
2016-Jul-18 18:31N 38°04' W 000°02'1212.6
2016-Jul-18 17:33N 38°15' E 000°04'1312.9
2016-Jul-18 16:31N 38°27' E 000°12'1712.5
2016-Jul-18 15:11N 38°41' E 000°22'72 2.5
2016-Jul-17 10:33N 39°48' E 000°57'1313.4
2016-Jul-17 09:33N 39°60' E 001°05'1413.3
2016-Jul-17 08:32N 40°12' E 001°13'1513.2
2016-Jul-17 07:24N 40°25' E 001°21'1313.2
2016-Jul-17 06:23N 40°37' E 001°29'2614.0
2016-Jul-17 04:33N 40°55' E 001°53'1414.4
2016-Jul-17 03:33N 41°04' E 002°08'1514.5
2016-Jul-17 02:33N 41°13' E 002°23'2014.2
2016-Jul-17 01:09N 41°26' E 002°44'4213.9
2016-Jul-16 22:08N 41°53' E 003°26'1214.6
2016-Jul-16 21:18N 42°05' E 003°26'1013.9
2016-Jul-16 20:33N 42°15' E 003°26'1413.5
2016-Jul-16 19:31N 42°29' E 003°26'7611.0
2016-Jul-16 12:33N 43°09' E 004°55'1211.8
2016-Jul-16 11:33N 43°14' E 005°09'9 0.2
2016-Jul-14 17:33N 43°21' E 005°17'1111.1
2016-Jul-14 16:34N 43°11' E 005°12'12910.4
2016-Jul-14 04:10N 43°37' E 008°06'914.4
2016-Jul-14 03:33N 43°42' E 008°16'1515.0
2016-Jul-14 02:33N 43°51' E 008°33'1514.7
2016-Jul-14 01:33N 43°59' E 008°49'1413.9
2016-Jul-14 00:33N 44°13' E 008°55'1111.4
2016-Jul-13 23:33N 44°24' E 008°54'0 0.2
2016-Jul-13 22:32N 44°24' E 008°54'0 0.0
2016-Jul-13 21:32N 44°24' E 008°54'0 0.0
2016-Jul-13 20:28N 44°24' E 008°54'0 0.0
2016-Jul-13 19:28N 44°24' E 008°54'0 0.0
2016-Jul-13 18:30N 44°24' E 008°54'0 0.0
2016-Jul-13 17:33N 44°24' E 008°54'0 0.0
2016-Jul-13 16:32N 44°24' E 008°54'0 0.0
2016-Jul-13 15:32N 44°24' E 008°54'0 0.0
2016-Jul-13 14:32N 44°24' E 008°54'0 0.0
2016-Jul-13 13:31N 44°24' E 008°54'0 0.0
2016-Jul-13 12:31N 44°24' E 008°54'0 0.1
2016-Jul-13 11:34N 44°24' E 008°54'1110.8
2016-Jul-13 10:33N 44°16' E 009°04'1616.0
2016-Jul-13 09:33N 44°04' E 009°19'1010.5
2016-Jul-13 08:33N 44°03' E 009°33'1110.7
2016-Jul-13 07:33N 43°59' E 009°47'7 7.2
2016-Jul-13 06:33N 44°06' E 009°51'0 0.2
2016-Jul-13 05:33N 44°06' E 009°51'0 0.0
2016-Jul-13 04:33N 44°06' E 009°51'0 0.0
2016-Jul-13 03:33N 44°06' E 009°51'0 0.0
2016-Jul-13 02:32N 44°06' E 009°51'0 0.0
2016-Jul-13 01:32N 44°06' E 009°51'0 0.0
2016-Jul-13 00:31N 44°06' E 009°51'0 0.0
2016-Jul-12 23:31N 44°06' E 009°51'0 0.0
2016-Jul-12 22:33N 44°06' E 009°51'0 0.0
2016-Jul-12 21:33N 44°06' E 009°51'0 0.0
2016-Jul-12 20:33N 44°06' E 009°51'0 0.0
2016-Jul-12 19:32N 44°06' E 009°51'0 0.0
2016-Jul-12 18:32N 44°06' E 009°51'0 0.0
2016-Jul-12 17:28N 44°06' E 009°51'0 0.0
2016-Jul-12 16:31N 44°06' E 009°51'0 0.0
2016-Jul-12 15:33N 44°06' E 009°51'3 3.1
2016-Jul-12 14:33N 44°04' E 009°52'  

Dump ship's entire track history